Time;durP1;ratioP1;P1;durP2;ratioP2;P2;SDS_P1;SDS_P2;PMS_P1;PMS_P2;Temp;Humidity;BMP_temperature;BMP_pressure;BME280_temperature;BME280_humidity;BME280_pressure;Samples;Min_cycle;Max_cycle;Signal;HPM_P1;HPM_P2
2022/06/07 00:00:17;;;;;;;18.90;13.10;;;11.70;99.90;;;;;;4844071;29;20124;-79
2022/06/07 00:02:44;;;;;;;20.55;12.90;;;11.70;99.90;;;;;;4837526;29;20053;-80
2022/06/07 00:05:11;;;;;;;19.25;12.38;;;11.70;99.90;;;;;;4829813;29;20041;-79
2022/06/07 00:07:38;;;;;;;17.88;12.73;;;11.70;99.90;;;;;;4834242;29;20053;-79
2022/06/07 00:10:09;;;;;;;21.02;13.70;;;11.60;99.90;;;;;;4844796;29;20047;-79
2022/06/07 00:12:36;;;;;;;23.02;13.45;;;11.70;99.90;;;;;;4837724;29;20500;-78
2022/06/07 00:15:06;;;;;;;19.83;12.45;;;11.70;99.90;;;;;;4832816;29;20062;-80
2022/06/07 00:17:32;;;;;;;18.67;12.90;;;11.70;99.90;;;;;;4837891;29;20497;-78
2022/06/07 00:19:59;;;;;;;19.90;13.95;;;11.70;99.90;;;;;;4854442;29;20036;-79
2022/06/07 00:22:26;;;;;;;20.08;13.85;;;11.70;99.90;;;;;;4850136;29;20045;-79
2022/06/07 00:24:53;;;;;;;20.52;13.98;;;11.70;99.90;;;;;;4848129;29;20092;-79
2022/06/07 00:27:22;;;;;;;18.52;13.63;;;11.70;99.90;;;;;;4844176;29;20037;-78
2022/06/07 00:29:49;;;;;;;16.88;12.75;;;11.70;99.90;;;;;;4829105;29;20110;-78
2022/06/07 00:32:18;;;;;;;19.88;13.27;;;11.70;99.90;;;;;;4836772;29;20457;-79
2022/06/07 00:34:45;;;;;;;17.98;13.63;;;11.70;99.90;;;;;;4841864;29;20041;-79
2022/06/07 00:37:14;;;;;;;20.45;13.70;;;11.70;99.90;;;;;;4836457;29;20351;-79
2022/06/07 00:39:41;;;;;;;17.88;12.60;;;11.70;99.90;;;;;;4836473;29;20389;-79
2022/06/07 00:42:12;;;;;;;19.67;14.13;;;11.70;99.90;;;;;;4843491;29;20040;-79
2022/06/07 00:44:44;;;;;;;20.30;13.68;;;11.70;99.90;;;;;;4830716;29;20409;-79
2022/06/07 00:47:12;;;;;;;19.98;13.82;;;11.80;99.90;;;;;;4834512;29;20162;-78
2022/06/07 00:49:52;;;;;;;21.15;12.70;;;11.80;99.90;;;;;;4845650;29;20056;-78
2022/06/07 00:52:20;;;;;;;20.10;13.82;;;11.80;99.90;;;;;;4836541;29;20041;-79
2022/06/07 00:54:49;;;;;;;20.30;13.57;;;11.80;99.90;;;;;;4847422;29;20090;-79
2022/06/07 00:57:19;;;;;;;19.40;14.02;;;11.80;99.90;;;;;;4847779;29;20067;-78
2022/06/07 00:59:46;;;;;;;22.90;14.00;;;11.80;99.90;;;;;;4847118;29;20033;-78
2022/06/07 01:02:13;;;;;;;19.80;14.13;;;11.80;99.90;;;;;;4837774;29;20043;-79
2022/06/07 01:04:42;;;;;;;17.90;13.73;;;11.90;99.90;;;;;;4837894;29;20041;-79
2022/06/07 01:12:44;;;;;;;17.80;13.55;;;11.90;99.90;;;;;;4870090;29;20043;-78
2022/06/07 01:15:11;;;;;;;17.42;11.90;;;11.90;99.90;;;;;;4847598;29;20048;-78
2022/06/07 01:17:37;;;;;;;17.85;12.02;;;11.90;99.90;;;;;;4846605;29;20041;-78
2022/06/07 01:20:07;;;;;;;20.42;11.43;;;11.90;99.90;;;;;;4846953;29;20052;-78
2022/06/07 01:22:34;;;;;;;18.02;12.15;;;11.90;99.90;;;;;;4835806;29;20518;-79
2022/06/07 01:25:03;;;;;;;19.08;11.82;;;11.90;99.90;;;;;;4833482;29;20052;-80
2022/06/07 01:27:32;;;;;;;18.25;11.88;;;11.90;99.90;;;;;;4838520;29;20045;-78
2022/06/07 01:29:58;;;;;;;19.13;11.82;;;11.90;99.90;;;;;;4836758;29;20059;-78
2022/06/07 01:32:24;;;;;;;16.23;10.98;;;12.00;99.90;;;;;;4828534;29;20098;-79
2022/06/07 01:34:50;;;;;;;19.58;11.98;;;12.00;99.90;;;;;;4853268;29;20053;-78
2022/06/07 01:37:20;;;;;;;18.95;11.73;;;12.00;99.90;;;;;;4843695;29;20523;-78
2022/06/07 01:42:32;;;;;;;16.85;11.13;;;11.90;99.90;;;;;;4854354;29;20040;-79
2022/06/07 01:44:58;;;;;;;19.38;11.80;;;12.00;99.90;;;;;;4838102;29;20041;-79
2022/06/07 01:47:28;;;;;;;17.83;10.80;;;11.90;99.90;;;;;;4843349;29;20048;-78
2022/06/07 01:49:55;;;;;;;18.15;11.52;;;11.90;99.90;;;;;;4845331;29;20112;-78
2022/06/07 01:52:24;;;;;;;16.80;11.13;;;12.00;99.90;;;;;;4846062;29;20077;-79
2022/06/07 01:54:51;;;;;;;21.23;11.57;;;12.00;99.90;;;;;;4841604;29;20540;-78
2022/06/07 01:57:19;;;;;;;19.70;11.68;;;11.90;99.90;;;;;;4858637;29;20647;-79
2022/06/07 01:59:45;;;;;;;16.95;10.50;;;12.00;99.90;;;;;;4839000;29;20033;-78
2022/06/07 02:02:13;;;;;;;16.85;10.65;;;12.00;99.90;;;;;;4830036;29;20461;-79
2022/06/07 02:04:42;;;;;;;18.90;11.05;;;11.90;99.90;;;;;;4844054;29;20045;-80
2022/06/07 02:07:09;;;;;;;18.90;11.18;;;12.00;99.90;;;;;;4845914;29;20096;-79
2022/06/07 02:09:41;;;;;;;20.10;11.35;;;11.90;99.90;;;;;;4845928;29;20389;-79
2022/06/07 02:12:08;;;;;;;19.77;11.38;;;11.90;99.90;;;;;;4837906;29;20037;-79
2022/06/07 02:14:38;;;;;;;21.38;12.15;;;12.00;99.90;;;;;;4838762;29;20048;-78
2022/06/07 02:17:08;;;;;;;19.95;11.55;;;12.00;99.90;;;;;;4843269;29;20496;-79
2022/06/07 02:19:37;;;;;;;17.58;10.32;;;12.00;99.90;;;;;;4836441;29;20095;-79
2022/06/07 02:22:04;;;;;;;19.17;10.45;;;12.00;99.90;;;;;;4835277;29;20097;-79
2022/06/07 02:24:31;;;;;;;19.08;10.82;;;12.00;99.90;;;;;;4837888;29;20089;-79
2022/06/07 02:27:03;;;;;;;18.15;10.90;;;12.10;99.90;;;;;;4838499;29;20040;-79
2022/06/07 02:29:44;;;;;;;16.23;10.57;;;12.00;99.90;;;;;;4843115;29;20542;-79
2022/06/07 02:32:42;;;;;;;16.92;10.82;;;12.00;99.90;;;;;;4834823;29;20120;-79
2022/06/07 02:35:09;;;;;;;16.92;10.77;;;12.00;99.90;;;;;;4827635;29;20076;-79
2022/06/07 02:37:37;;;;;;;17.17;10.57;;;12.00;99.90;;;;;;4846209;29;20400;-80
2022/06/07 02:40:09;;;;;;;18.77;11.50;;;12.00;99.90;;;;;;4848250;29;20037;-79
2022/06/07 02:42:39;;;;;;;17.35;10.88;;;12.00;99.90;;;;;;4841381;29;20068;-78
2022/06/07 02:45:05;;;;;;;17.65;11.13;;;12.00;99.90;;;;;;4840032;29;20476;-79
2022/06/07 02:47:32;;;;;;;19.63;11.73;;;12.00;99.90;;;;;;4849482;29;20101;-79
2022/06/07 02:49:59;;;;;;;16.77;11.18;;;12.00;99.90;;;;;;4843091;29;20072;-79
2022/06/07 02:52:33;;;;;;;19.15;11.80;;;12.00;99.90;;;;;;4843043;29;20040;-80
2022/06/07 02:55:03;;;;;;;18.67;11.40;;;12.00;99.90;;;;;;4849069;29;20049;-80
2022/06/07 02:57:38;;;;;;;18.02;11.40;;;12.00;99.90;;;;;;4846266;29;20049;-79
2022/06/07 03:00:10;;;;;;;17.27;11.32;;;12.00;99.90;;;;;;4837976;29;20041;-80
2022/06/07 03:02:39;;;;;;;18.00;10.73;;;12.00;99.90;;;;;;4844994;29;20647;-79
2022/06/07 03:05:12;;;;;;;17.40;11.07;;;12.00;99.90;;;;;;4840962;29;20089;-80
2022/06/07 03:07:39;;;;;;;16.50;10.77;;;12.00;99.90;;;;;;4852224;29;20124;-81
2022/06/07 03:10:12;;;;;;;19.65;11.18;;;12.00;99.90;;;;;;4869784;29;20050;-78
2022/06/07 03:12:38;;;;;;;18.35;10.63;;;12.00;99.90;;;;;;4840918;29;20034;-79
2022/06/07 03:15:05;;;;;;;17.05;10.88;;;12.00;99.90;;;;;;4841128;29;20048;-79
2022/06/07 03:17:31;;;;;;;16.92;10.50;;;12.00;99.90;;;;;;4849744;29;20041;-79
2022/06/07 03:19:58;;;;;;;17.88;10.80;;;12.00;99.90;;;;;;4858221;29;20037;-79
2022/06/07 03:22:25;;;;;;;18.55;11.30;;;12.10;99.90;;;;;;4856088;29;20034;-79
2022/06/07 03:24:54;;;;;;;16.33;10.43;;;12.00;99.90;;;;;;4841139;29;20293;-78
2022/06/07 03:27:21;;;;;;;17.48;10.50;;;11.90;99.90;;;;;;4839822;29;20143;-78
2022/06/07 03:29:50;;;;;;;18.63;10.95;;;12.00;99.90;;;;;;4837711;29;20037;-78
2022/06/07 03:32:19;;;;;;;16.73;10.98;;;12.00;99.90;;;;;;4845439;29;20040;-78
2022/06/07 03:34:46;;;;;;;16.48;11.35;;;12.00;99.90;;;;;;4840006;29;20069;-78
2022/06/07 03:37:12;;;;;;;16.73;10.50;;;11.90;99.90;;;;;;4860347;23;20061;-82
2022/06/07 03:39:37;;;;;;;17.30;10.68;;;11.90;99.90;;;;;;4826768;29;20053;-81
2022/06/07 03:42:03;;;;;;;16.23;10.57;;;11.90;99.90;;;;;;4845726;29;20033;-81
2022/06/07 03:44:29;;;;;;;16.90;10.55;;;11.90;99.90;;;;;;4867292;29;20053;-81
2022/06/07 03:46:55;;;;;;;16.50;10.40;;;11.90;99.90;;;;;;4851786;29;20552;-81
2022/06/07 03:49:21;;;;;;;15.52;9.82;;;12.00;99.90;;;;;;4810595;29;20134;-81
2022/06/07 03:51:47;;;;;;;16.15;10.10;;;12.00;99.90;;;;;;4821628;29;20042;-81
2022/06/07 03:54:13;;;;;;;17.38;10.40;;;12.00;99.90;;;;;;4821725;29;20124;-81
2022/06/07 03:56:39;;;;;;;16.42;10.02;;;12.00;99.90;;;;;;4837089;29;20556;-81
2022/06/07 03:59:05;;;;;;;15.68;9.95;;;12.00;99.90;;;;;;4826277;29;20401;-82
2022/06/07 04:01:30;;;;;;;17.77;10.85;;;11.90;99.90;;;;;;4833056;29;20049;-82
2022/06/07 04:04:01;;;;;;;17.05;9.75;;;11.90;99.90;;;;;;4838731;29;20053;-81
2022/06/07 04:06:34;;;;;;;14.55;9.90;;;11.90;99.90;;;;;;4844749;29;20045;-82
2022/06/07 04:08:59;;;;;;;14.27;9.68;;;12.00;99.90;;;;;;4811154;29;20070;-82
2022/06/07 04:11:27;;;;;;;13.45;9.45;;;12.00;99.90;;;;;;4836391;29;20045;-82
2022/06/07 04:13:54;;;;;;;15.68;9.85;;;11.90;99.90;;;;;;4822764;29;20049;-82
2022/06/07 04:16:23;;;;;;;19.20;10.73;;;12.10;99.90;;;;;;4845186;29;20057;-82
2022/06/07 04:18:49;;;;;;;17.08;10.25;;;12.10;99.90;;;;;;4812695;29;20513;-82
2022/06/07 04:21:16;;;;;;;16.42;10.30;;;12.10;99.90;;;;;;4832100;29;20113;-81
2022/06/07 04:23:42;;;;;;;16.58;10.73;;;12.10;99.90;;;;;;4837492;29;20048;-81
2022/06/07 04:26:23;;;;;;;16.00;10.40;;;12.20;99.90;;;;;;4829727;29;20409;-82
2022/06/07 04:28:49;;;;;;;16.77;11.07;;;12.10;99.90;;;;;;4810974;29;20041;-82
2022/06/07 04:31:19;;;;;;;19.95;11.77;;;12.10;99.90;;;;;;4815957;29;20515;-82
2022/06/07 04:33:45;;;;;;;17.75;11.57;;;12.10;99.90;;;;;;4818807;29;20401;-81
2022/06/07 04:36:18;;;;;;;17.50;11.05;;;12.20;99.90;;;;;;4810633;29;20493;-82
2022/06/07 04:38:44;;;;;;;18.33;11.40;;;12.20;99.90;;;;;;4810724;29;20042;-82
2022/06/07 04:41:12;;;;;;;17.83;12.20;;;12.20;99.90;;;;;;4815548;29;20185;-81
2022/06/07 04:43:38;;;;;;;17.88;10.82;;;12.20;99.90;;;;;;4819098;29;20045;-82
2022/06/07 04:46:05;;;;;;;17.35;12.00;;;12.20;99.90;;;;;;4826037;29;20166;-83
2022/06/07 04:48:31;;;;;;;16.95;12.63;;;12.20;99.90;;;;;;4842024;29;20047;-82
2022/06/07 04:51:05;;;;;;;17.63;11.48;;;12.30;99.90;;;;;;4837653;29;20041;-82
2022/06/07 04:53:31;;;;;;;17.23;11.10;;;12.30;99.90;;;;;;4851328;29;20037;-82
2022/06/07 04:55:59;;;;;;;18.92;12.15;;;12.30;99.90;;;;;;4811177;29;20561;-82
2022/06/07 04:58:25;;;;;;;18.33;11.48;;;12.40;99.90;;;;;;4817850;29;20047;-82
2022/06/07 05:00:51;;;;;;;16.75;11.75;;;12.40;99.90;;;;;;4813914;29;20045;-82
2022/06/07 05:03:16;;;;;;;18.83;11.98;;;12.40;99.90;;;;;;4835249;29;20042;-82
2022/06/07 05:05:42;;;;;;;19.38;11.25;;;12.40;99.90;;;;;;4824442;29;20568;-83
2022/06/07 05:08:08;;;;;;;18.27;11.98;;;12.50;99.90;;;;;;4837078;29;20129;-80
2022/06/07 05:10:33;;;;;;;16.48;11.50;;;12.50;99.90;;;;;;4836652;29;20089;-83
2022/06/07 05:12:59;;;;;;;17.02;11.10;;;12.60;99.90;;;;;;4824331;29;20061;-83
2022/06/07 05:15:24;;;;;;;18.63;11.73;;;12.60;99.90;;;;;;4830870;29;20057;-85
2022/06/07 05:17:50;;;;;;;18.48;12.52;;;12.60;99.90;;;;;;4841911;29;20041;-83
2022/06/07 05:20:16;;;;;;;18.92;12.15;;;12.70;99.90;;;;;;4820288;29;20081;-83
2022/06/07 05:22:41;;;;;;;18.00;12.95;;;12.70;99.90;;;;;;4818704;29;20049;-82
2022/06/07 05:25:07;;;;;;;16.75;11.15;;;12.80;99.90;;;;;;4818537;29;20037;-83
2022/06/07 05:27:39;;;;;;;17.45;11.98;;;12.80;99.90;;;;;;4824639;29;20033;-84
2022/06/07 05:30:05;;;;;;;19.10;12.30;;;12.80;99.90;;;;;;4815044;29;20037;-84
2022/06/07 05:32:31;;;;;;;18.52;12.48;;;12.90;99.90;;;;;;4811129;29;20045;-84
2022/06/07 05:34:57;;;;;;;17.80;11.45;;;12.90;99.90;;;;;;4806048;29;20489;-83
2022/06/07 05:37:23;;;;;;;18.42;12.30;;;12.90;99.90;;;;;;4824576;29;20050;-83
2022/06/07 05:39:49;;;;;;;16.10;11.35;;;12.90;99.90;;;;;;4809636;29;20048;-83
2022/06/07 05:42:17;;;;;;;15.50;11.30;;;13.00;99.90;;;;;;4824634;29;20046;-83
2022/06/07 05:44:43;;;;;;;18.23;11.60;;;13.00;99.90;;;;;;4808034;29;20269;-84
2022/06/07 05:47:10;;;;;;;17.95;12.20;;;12.90;99.90;;;;;;4840262;29;20077;-83
2022/06/07 05:49:36;;;;;;;18.17;11.93;;;13.00;99.90;;;;;;4825033;29;20060;-84
2022/06/07 05:52:03;;;;;;;16.10;11.38;;;13.00;99.90;;;;;;4809871;29;20130;-83
2022/06/07 05:54:31;;;;;;;17.58;12.70;;;13.10;99.90;;;;;;4806315;29;20056;-83
2022/06/07 05:56:57;;;;;;;17.42;12.02;;;13.20;99.90;;;;;;4809011;29;20416;-84
2022/06/07 05:59:22;;;;;;;14.98;11.27;;;13.10;99.90;;;;;;4817158;29;20041;-82
2022/06/07 06:01:48;;;;;;;14.65;11.70;;;13.10;99.90;;;;;;4812004;29;21084;-84
2022/06/07 06:04:14;;;;;;;17.52;11.65;;;13.10;99.90;;;;;;4835249;29;20507;-85
2022/06/07 06:06:40;;;;;;;16.40;12.20;;;13.00;99.90;;;;;;4828406;29;20129;-83
2022/06/07 06:11:50;;;;;;;20.10;12.27;;;12.90;99.90;;;;;;4838190;29;20053;-82
2022/06/07 06:14:17;;;;;;;16.55;12.20;;;12.90;99.90;;;;;;4809501;29;20041;-84
2022/06/07 06:16:43;;;;;;;16.88;12.57;;;12.80;99.90;;;;;;4812613;29;20050;-82
2022/06/07 06:19:08;;;;;;;16.65;11.80;;;12.80;99.90;;;;;;4808922;29;20038;-84
2022/06/07 06:21:37;;;;;;;14.82;11.60;;;12.80;99.90;;;;;;4809880;29;20055;-82
2022/06/07 06:24:04;;;;;;;18.23;12.18;;;12.70;99.90;;;;;;4814326;29;20048;-82
2022/06/07 06:26:30;;;;;;;15.80;12.50;;;12.70;99.90;;;;;;4843310;29;20046;-82
2022/06/07 06:28:56;;;;;;;18.60;12.40;;;12.70;99.90;;;;;;4828582;29;20215;-82
2022/06/07 06:31:22;;;;;;;17.80;12.20;;;12.50;99.90;;;;;;4811771;29;20043;-83
2022/06/07 06:33:50;;;;;;;17.05;12.85;;;12.70;99.90;;;;;;4806506;29;20558;-83
2022/06/07 06:36:19;;;;;;;18.08;12.20;;;12.60;99.90;;;;;;4806434;29;20106;-82
2022/06/07 06:38:45;;;;;;;19.50;12.55;;;12.60;99.90;;;;;;4821103;29;20433;-82
2022/06/07 06:41:31;;;;;;;18.90;11.60;;;12.60;99.90;;;;;;4823879;29;20038;-82
2022/06/07 06:44:00;;;;;;;18.55;13.02;;;12.60;99.90;;;;;;4808991;29;20076;-82
2022/06/07 06:46:28;;;;;;;19.20;12.98;;;12.50;99.90;;;;;;4823858;29;20178;-83
2022/06/07 06:48:55;;;;;;;19.83;12.40;;;12.60;99.90;;;;;;4824276;29;20053;-82
2022/06/07 06:51:23;;;;;;;18.85;12.65;;;12.60;99.90;;;;;;4823781;29;20037;-82
2022/06/07 06:53:49;;;;;;;18.75;13.25;;;12.60;99.90;;;;;;4816431;29;20038;-83
2022/06/07 06:56:18;;;;;;;18.15;14.02;;;12.70;99.90;;;;;;4822356;29;20523;-83
2022/06/07 06:58:43;;;;;;;21.17;13.20;;;12.70;99.90;;;;;;4809172;29;20396;-83
2022/06/07 07:01:13;;;;;;;16.70;13.05;;;12.80;99.90;;;;;;4824003;29;20034;-83
2022/06/07 07:03:41;;;;;;;18.95;13.18;;;12.80;99.90;;;;;;4824487;29;20065;-85
2022/06/07 07:06:08;;;;;;;18.08;13.52;;;12.80;99.90;;;;;;4808560;29;20442;-83
2022/06/07 07:08:35;;;;;;;19.98;12.98;;;12.90;99.90;;;;;;4823471;29;20056;-83
2022/06/07 07:11:05;;;;;;;18.90;14.02;;;12.90;99.90;;;;;;4839635;29;20060;-82
2022/06/07 07:13:31;;;;;;;17.13;13.60;;;12.90;99.90;;;;;;4823744;29;20052;-83
2022/06/07 07:15:57;;;;;;;17.13;13.43;;;12.90;99.90;;;;;;4807597;29;20129;-82
2022/06/07 07:18:24;;;;;;;16.67;12.75;;;12.80;99.90;;;;;;4808689;29;20072;-82
2022/06/07 07:20:49;;;;;;;18.08;12.80;;;12.80;99.90;;;;;;4805650;29;20685;-83
2022/06/07 07:23:16;;;;;;;16.42;13.15;;;12.80;99.90;;;;;;4804499;29;20128;-82
2022/06/07 07:25:42;;;;;;;19.77;12.88;;;12.70;99.90;;;;;;4810142;29;20575;-83
2022/06/07 07:28:07;;;;;;;16.83;13.05;;;12.70;99.90;;;;;;4813353;29;20034;-81
2022/06/07 07:30:33;;;;;;;19.63;11.95;;;12.60;99.90;;;;;;4826316;29;20030;-82
2022/06/07 07:32:59;;;;;;;15.27;12.07;;;12.60;99.90;;;;;;4827112;29;20042;-82
2022/06/07 07:35:24;;;;;;;18.70;12.88;;;12.70;99.90;;;;;;4811799;29;20457;-82
2022/06/07 07:37:50;;;;;;;17.30;12.68;;;12.70;99.90;;;;;;4812110;29;20061;-82
2022/06/07 07:40:16;;;;;;;16.25;11.70;;;12.70;99.90;;;;;;4826087;29;20513;-81
2022/06/07 07:42:42;;;;;;;17.63;12.95;;;12.80;99.90;;;;;;4811976;29;20077;-82
2022/06/07 07:45:09;;;;;;;16.55;12.32;;;12.80;99.90;;;;;;4811751;29;20080;-83
2022/06/07 07:47:35;;;;;;;15.23;11.80;;;12.90;99.90;;;;;;4842174;29;20046;-83
2022/06/07 07:50:01;;;;;;;15.48;12.07;;;12.90;99.90;;;;;;4825334;29;20046;-82
2022/06/07 07:52:27;;;;;;;16.00;11.15;;;12.90;99.90;;;;;;4826770;29;20046;-83
2022/06/07 07:54:53;;;;;;;16.17;12.25;;;12.80;99.90;;;;;;4816783;29;20117;-82
2022/06/07 07:57:18;;;;;;;13.10;11.18;;;12.90;99.90;;;;;;4811297;29;20049;-82
2022/06/07 07:59:44;;;;;;;14.95;11.07;;;12.90;99.90;;;;;;4811248;29;20091;-82
2022/06/07 08:02:19;;;;;;;19.45;11.75;;;12.90;99.90;;;;;;4816775;29;20078;-82
2022/06/07 08:04:44;;;;;;;18.70;12.45;;;12.90;99.90;;;;;;4810310;29;20050;-83
2022/06/07 08:07:10;;;;;;;15.30;12.70;;;12.90;99.90;;;;;;4841736;29;20046;-82
2022/06/07 08:09:36;;;;;;;19.30;12.27;;;13.00;99.90;;;;;;4811364;29;20049;-82
2022/06/07 08:12:05;;;;;;;13.70;10.93;;;13.00;99.90;;;;;;4810901;29;20038;-82
2022/06/07 08:14:32;;;;;;;12.45;9.70;;;12.90;99.90;;;;;;4811145;29;20058;-82
2022/06/07 08:16:58;;;;;;;11.75;10.13;;;12.90;99.90;;;;;;4811735;29;20060;-82
2022/06/07 08:19:24;;;;;;;11.88;9.70;;;12.90;99.90;;;;;;4826412;29;20041;-82
2022/06/07 08:21:50;;;;;;;13.50;9.75;;;12.90;99.90;;;;;;4810939;29;20067;-82
2022/06/07 08:24:19;;;;;;;11.88;9.85;;;12.80;99.90;;;;;;4825072;29;20046;-82
2022/06/07 08:26:48;;;;;;;13.20;9.73;;;12.80;99.90;;;;;;4810603;29;20042;-82
2022/06/07 08:29:15;;;;;;;14.25;9.98;;;12.90;99.90;;;;;;4826266;29;20045;-82
2022/06/07 08:31:40;;;;;;;14.10;11.07;;;12.90;99.90;;;;;;4810255;29;20041;-82
2022/06/07 08:39:36;;;;;;;13.70;10.85;;;13.10;99.90;;;;;;4839118;29;20049;-82
2022/06/07 08:42:04;;;;;;;15.35;10.80;;;13.10;99.90;;;;;;4809553;29;20075;-82
2022/06/07 08:44:39;;;;;;;13.38;10.52;;;13.10;99.90;;;;;;4810726;29;20054;-82
2022/06/07 08:47:52;;;;;;;12.75;9.85;;;13.00;99.90;;;;;;4825224;29;20033;-82
2022/06/07 08:50:24;;;;;;;14.37;11.43;;;13.10;99.90;;;;;;4814425;29;20358;-82
2022/06/07 08:52:56;;;;;;;13.30;9.93;;;13.00;99.90;;;;;;4810752;29;20295;-82
2022/06/07 08:55:35;;;;;;;10.98;9.65;;;13.10;99.90;;;;;;4825138;29;20588;-82
2022/06/07 08:58:17;;;;;;;14.00;10.65;;;13.10;99.90;;;;;;4819078;29;20034;-82
2022/06/07 09:00:48;;;;;;;14.38;10.70;;;13.10;99.90;;;;;;4825393;29;20073;-82
2022/06/07 09:03:32;;;;;;;12.73;10.68;;;13.10;99.90;;;;;;4809506;29;20038;-83
2022/06/07 09:06:00;;;;;;;13.00;9.35;;;13.10;99.90;;;;;;4819490;29;20042;-82
2022/06/07 09:08:33;;;;;;;18.30;11.45;;;13.20;99.90;;;;;;4826097;29;20042;-83
2022/06/07 09:13:50;;;;;;;13.07;9.73;;;13.20;99.90;;;;;;4840713;29;20084;-83
2022/06/07 09:16:16;;;;;;;12.63;9.38;;;13.20;99.90;;;;;;4825095;29;20053;-84
2022/06/07 09:18:45;;;;;;;12.68;9.55;;;13.10;99.90;;;;;;4810117;29;20046;-83
2022/06/07 09:21:31;;;;;;;12.07;9.32;;;13.10;99.90;;;;;;4838917;29;20100;-83
2022/06/07 09:23:58;;;;;;;12.55;8.80;;;13.10;99.90;;;;;;4839066;29;20562;-82
2022/06/07 09:26:33;;;;;;;11.88;8.50;;;13.20;99.90;;;;;;4809292;29;20044;-82
2022/06/07 09:29:15;;;;;;;15.35;8.88;;;13.20;99.90;;;;;;4825397;29;20046;-82
2022/06/07 09:31:43;;;;;;;11.25;8.20;;;13.30;99.90;;;;;;4824109;29;20542;-84
2022/06/07 09:34:23;;;;;;;13.30;8.82;;;13.40;99.90;;;;;;4808596;29;20048;-83
2022/06/07 09:36:56;;;;;;;16.27;9.05;;;13.80;99.90;;;;;;4808331;29;20038;-82
2022/06/07 09:39:47;;;;;;;;;;;;;;;;;;;;;
2022/06/07 09:42:51;;;;;;;11.52;7.30;;;14.20;99.90;;;;;;4852249;29;19981;-78
2022/06/07 09:46:24;;;;;;;9.20;6.35;;;14.20;99.90;;;;;;4803056;29;20055;-78
2022/06/07 09:49:05;;;;;;;7.72;5.22;;;14.30;99.90;;;;;;4828461;29;20053;-79
2022/06/07 09:51:49;;;;;;;8.95;5.57;;;14.30;99.90;;;;;;4821396;29;20050;-79
2022/06/07 09:58:09;;;;;;;7.25;5.10;;;14.20;99.90;;;;;;4827492;29;20129;-81
2022/06/07 10:01:23;;;;;;;7.22;5.03;;;14.00;99.90;;;;;;4809348;29;20044;-82
2022/06/07 10:04:19;;;;;;;8.20;5.65;;;14.00;99.90;;;;;;4793138;29;20068;-81
2022/06/07 10:10:47;;;;;;;8.23;5.75;;;14.00;99.90;;;;;;4847540;29;20583;-81
2022/06/07 10:13:38;;;;;;;8.35;5.82;;;14.10;99.90;;;;;;4799018;29;20053;-80
2022/06/07 10:16:30;;;;;;;10.40;6.00;;;14.20;99.90;;;;;;4843861;29;20557;-80
2022/06/07 10:19:32;;;;;;;7.40;6.05;;;14.20;99.90;;;;;;4827723;29;20083;-82
2022/06/07 10:22:02;;;;;;;7.97;6.38;;;14.20;99.90;;;;;;4828055;29;20044;-82
2022/06/07 10:25:06;;;;;;;9.57;6.57;;;14.30;99.90;;;;;;4834983;29;20068;-81
2022/06/07 10:27:53;;;;;;;9.85;6.25;;;14.40;99.90;;;;;;4835812;29;20041;-81
2022/06/07 10:30:47;;;;;;;9.82;6.70;;;14.50;99.90;;;;;;4834200;29;20435;-78
2022/06/07 10:33:31;;;;;;;13.68;7.22;;;14.60;99.90;;;;;;4841617;29;20058;-79
2022/06/07 10:36:30;;;;;;;11.50;6.97;;;14.70;99.90;;;;;;4810110;29;20062;-79
2022/06/07 10:39:33;;;;;;;9.52;6.40;;;14.70;99.90;;;;;;4842082;29;20051;-78
2022/06/07 10:42:25;;;;;;;7.38;6.00;;;14.70;99.90;;;;;;4817020;29;20042;-79
2022/06/07 10:45:10;;;;;;;7.15;5.82;;;14.70;99.90;;;;;;4818651;29;20338;-79
2022/06/07 10:47:51;;;;;;;8.25;6.38;;;14.70;99.90;;;;;;4842825;29;20081;-78
2022/06/07 10:50:45;;;;;;;9.05;5.95;;;14.70;99.90;;;;;;4843652;29;20056;-79
2022/06/07 10:53:17;;;;;;;10.73;6.38;;;14.80;99.90;;;;;;4828040;29;21343;-79
2022/06/07 10:55:59;;;;;;;8.88;6.65;;;14.90;99.90;;;;;;4848667;29;20046;-78
2022/06/07 10:58:39;;;;;;;11.90;6.90;;;15.00;99.90;;;;;;4853599;29;20061;-78
2022/06/07 11:01:15;;;;;;;9.38;6.18;;;15.20;99.90;;;;;;4847704;29;20049;-79
2022/06/07 11:03:53;;;;;;;10.77;7.25;;;15.50;99.90;;;;;;4838326;29;20074;-78
2022/06/07 11:09:53;;;;;;;9.85;7.50;;;16.00;99.90;;;;;;4872746;29;20488;-79
2022/06/07 11:12:24;;;;;;;11.82;7.50;;;16.70;99.90;;;;;;4845588;29;20046;-79
2022/06/07 11:15:35;;;;;;;9.35;7.30;;;17.60;99.90;;;;;;4846050;29;20054;-81
2022/06/07 11:18:17;;;;;;;;;;;18.30;99.90;;;;;;4846831;29;20088;-80
2022/06/07 11:21:57;;;;;;;9.27;6.05;;;18.80;99.90;;;;;;4822735;29;19932;-81
2022/06/07 11:25:07;;;;;;;7.15;6.05;;;19.00;99.90;;;;;;4869607;29;20056;-81
2022/06/07 11:32:10;;;;;;;8.93;5.45;;;19.20;99.90;;;;;;4854112;29;20527;-81
2022/06/07 11:35:21;;;;;;;8.50;5.30;;;19.30;99.90;;;;;;4823752;29;20053;-82
2022/06/07 11:38:19;;;;;;;7.38;5.00;;;19.00;99.90;;;;;;4805377;29;20058;-82
2022/06/07 11:41:46;;;;;;;8.43;5.57;;;18.80;99.90;;;;;;4779453;29;20042;-82
2022/06/07 11:45:16;;;;;;;9.15;5.40;;;18.80;99.90;;;;;;4860178;29;20125;-82
2022/06/07 11:48:49;;;;;;;6.45;5.28;;;18.90;99.90;;;;;;4815486;29;20050;-81
2022/06/07 11:52:32;;;;;;;9.68;5.55;;;19.10;99.90;;;;;;4707658;30;20053;-81
2022/06/07 11:55:32;;;;;;;7.88;5.10;;;19.50;99.90;;;;;;4761989;29;20045;-81
2022/06/07 11:59:53;;;;;;;8.68;5.70;;;20.30;99.90;;;;;;4786620;29;20048;-82
2022/06/07 12:02:54;;;;;;;9.10;5.03;;;20.60;99.90;;;;;;4725146;30;20079;-82
2022/06/07 12:06:29;;;;;;;8.02;5.10;;;21.00;99.90;;;;;;4755657;29;20509;-81
2022/06/07 12:09:31;;;;;;;7.68;4.95;;;21.30;99.90;;;;;;4824219;29;20410;-82
2022/06/07 12:17:06;;;;;;;7.70;4.90;;;21.10;99.90;;;;;;4835225;29;20178;-82
2022/06/07 12:19:53;;;;;;;6.72;3.83;;;20.80;99.90;;;;;;4821067;29;20046;-81
2022/06/07 12:23:24;;;;;;;6.65;4.05;;;20.40;99.90;;;;;;4793603;29;20096;-82
2022/06/07 12:26:46;;;;;;;9.13;4.53;;;20.10;99.90;;;;;;4821783;29;20053;-82
2022/06/07 12:30:25;;;;;;;8.23;4.47;;;19.80;99.90;;;;;;4846585;29;20046;-81
2022/06/07 12:34:03;;;;;;;6.18;4.40;;;19.70;99.90;;;;;;4777616;30;20089;-81
2022/06/07 12:37:43;;;;;;;8.40;4.47;;;19.80;99.90;;;;;;4756726;29;20052;-81
2022/06/07 12:41:15;;;;;;;9.27;4.20;;;20.00;99.90;;;;;;4819518;29;20127;-81
2022/06/07 12:44:55;;;;;;;7.60;4.00;;;20.40;99.90;;;;;;4770029;30;20051;-82
2022/06/07 12:48:38;;;;;;;6.88;3.58;;;20.90;99.90;;;;;;4776287;29;20465;-81
2022/06/07 12:55:15;;;;;;;6.90;3.80;;;21.80;99.90;;;;;;4803058;29;20507;-82
2022/06/07 13:02:44;;;;;;;9.15;4.70;;;22.00;99.90;;;;;;4814370;29;20054;-81
2022/06/07 13:06:21;;;;;;;6.68;3.75;;;22.60;99.90;;;;;;4812270;29;20317;-82
2022/06/07 13:09:26;;;;;;;6.15;4.18;;;22.70;99.90;;;;;;4756829;30;20569;-81
2022/06/07 13:12:45;;;;;;;7.25;4.50;;;22.30;99.90;;;;;;4778617;29;20415;-81
2022/06/07 13:15:50;;;;;;;7.18;4.47;;;22.00;99.90;;;;;;4804134;29;20534;-82
2022/06/07 13:18:32;;;;;;;6.15;4.45;;;21.90;99.90;;;;;;4810864;29;20465;-81
2022/06/07 13:22:14;;;;;;;5.60;4.00;;;21.70;99.90;;;;;;4809962;29;20038;-81
2022/06/07 13:25:50;;;;;;;5.40;4.68;;;21.80;99.90;;;;;;4843135;29;20050;-81
2022/06/07 13:29:24;;;;;;;7.13;4.82;;;21.90;99.90;;;;;;4840211;29;20050;-81
2022/06/07 13:33:04;;;;;;;6.88;5.35;;;21.60;99.90;;;;;;4842160;29;20042;-82
2022/06/07 13:36:29;;;;;;;7.50;5.35;;;21.40;99.90;;;;;;4844087;29;20424;-81
2022/06/07 13:40:30;;;;;;;7.70;5.03;;;21.70;99.90;;;;;;4835585;29;20473;-81
2022/06/07 13:43:30;;;;;;;5.95;5.00;;;22.00;99.90;;;;;;4835118;29;20597;-81
2022/06/07 13:45:56;;;;;;;6.28;5.00;;;21.90;99.90;;;;;;4825097;29;20111;-80
2022/06/07 13:54:22;;;;;;;7.13;5.47;;;21.30;99.90;;;;;;4827924;29;20479;-79
2022/06/07 13:56:51;;;;;;;8.07;5.63;;;21.20;99.90;;;;;;4821917;29;20049;-79
2022/06/07 13:59:26;;;;;;;5.97;5.38;;;21.20;99.90;;;;;;4841498;29;20046;-79
2022/06/07 14:01:52;;;;;;;7.03;5.32;;;21.20;99.90;;;;;;4835063;29;20077;-79
2022/06/07 14:04:33;;;;;;;7.30;5.30;;;21.00;99.90;;;;;;4817957;29;20038;-80
2022/06/07 14:07:10;;;;;;;9.57;6.30;;;20.90;99.90;;;;;;4799795;29;20307;-79
2022/06/07 14:09:37;;;;;;;7.40;5.75;;;20.90;99.90;;;;;;4835786;29;20081;-77
2022/06/07 14:12:04;;;;;;;8.43;6.47;;;21.10;99.90;;;;;;4831365;29;20041;-78
2022/06/07 14:14:34;;;;;;;7.05;6.20;;;21.20;99.90;;;;;;4838296;29;20069;-78
2022/06/07 14:17:05;;;;;;;8.52;5.68;;;21.70;99.90;;;;;;4844075;29;20041;-78